Chisholm-Hibbing Airport

Date: 2024-06-11 11:53:00Z

Type: METAR

Weather: Light Rain

Winds: 120° at 5 kts

Visibility: 6

Ceiling (AGL FT): Clouds FEW at 5000, SCATTERED at 6000, OVERCAST at 10000, SCATTERED at 14000

RAW METAR: KHIB 111153Z AUTO 12005KT 6SM -RA BR FEW050 SCT060 OVC100 08/07 A2983 RMK AO2 SLP104 P0007 60007 70007 T00830072 10100 20072 58017

project-image